Lyman, Washington
Current Conditions -  °F | °C
As of 2:15 PM on Monday 20 Oct 2014 (Local Time) from KBVS Reporting Station
Overcast Overcast  
Wind Chill: 63°   Ceiling: 2500
Heat Index: 63°   Visibility: 10mi
Dew Point: 63°   Wind: 12mph
Humidity: 100%   Direction: 160°SSE
Pressure: 29.74"   Gusts: NA
Location:  48.53°N, 122.06°W
Report Text: KBVS 202115Z AUTO 16010KT 030V040 10SM BKN025 BKN033 OVC047 17/17 A2974 RMK A01 P000
Loading
Personal Weather Stations






























Interactive Weather Map
Tropical Storm Tracking
New forecast layout! Learn more

10-Day Weather Forecast

Advertisements
Track Severe Weather on mobile